createdAt,value
2023-11-18T00:00:54.034Z,7.68
2023-11-18T00:03:20.463Z,6.72
2023-11-18T00:05:46.957Z,8.55
2023-11-18T00:08:13.292Z,6.88
2023-11-18T00:10:39.704Z,7.53
2023-11-18T00:13:06.065Z,10.77
2023-11-18T00:15:32.466Z,7.80
2023-11-18T00:17:58.824Z,7.55
2023-11-18T00:20:25.262Z,6.13
2023-11-18T00:22:51.773Z,8.88
2023-11-18T00:25:18.182Z,8.57
2023-11-18T00:27:44.663Z,10.05
2023-11-18T00:30:11.481Z,8.15
2023-11-18T00:32:38.542Z,7.65
2023-11-18T00:35:05.461Z,7.93
2023-11-18T00:37:31.974Z,8.15
2023-11-18T00:39:58.487Z,7.95
2023-11-18T00:42:24.854Z,7.68
2023-11-18T00:44:51.219Z,8.40
2023-11-18T00:47:17.674Z,7.97
2023-11-18T00:49:44.180Z,8.98
2023-11-18T00:52:10.563Z,6.05
2023-11-18T00:54:36.899Z,10.23
2023-11-18T00:57:03.442Z,7.72
2023-11-18T00:59:29.861Z,9.77
2023-11-18T01:01:56.378Z,7.63
2023-11-18T01:04:22.750Z,10.05
2023-11-18T01:06:49.165Z,10.90
2023-11-18T01:09:15.520Z,7.97
2023-11-18T01:12:06.830Z,7.85
2023-11-18T01:14:28.199Z,8.68
2023-11-18T01:16:54.568Z,8.02
2023-11-18T01:19:21.016Z,6.82
2023-11-18T01:21:47.425Z,9.80
2023-11-18T01:24:13.775Z,6.75
2023-11-18T01:26:40.136Z,7.35
2023-11-18T01:29:06.497Z,7.47
2023-11-18T01:31:40.112Z,6.13
2023-11-18T01:34:14.156Z,6.80
2023-11-18T01:36:40.467Z,7.03
2023-11-18T01:39:06.817Z,7.03
2023-11-18T01:41:33.266Z,7.32
2023-11-18T01:43:59.625Z,6.68
2023-11-18T01:46:26.365Z,6.22
2023-11-18T01:48:53.379Z,8.15
2023-11-18T01:51:20.332Z,7.18
2023-11-18T01:53:48.788Z,8.25
2023-11-18T01:56:15.268Z,6.97
2023-11-18T01:58:41.704Z,7.95
2023-11-18T02:01:08.254Z,7.53
2023-11-18T02:03:37.819Z,6.97
2023-11-18T02:06:05.458Z,6.70
2023-11-18T02:08:33.789Z,8.73
2023-11-18T02:11:06.574Z,8.95
2023-11-18T02:13:37.087Z,7.60
2023-11-18T02:16:05.272Z,7.78
2023-11-18T02:18:31.883Z,8.73
2023-11-18T02:21:00.217Z,8.73
2023-11-18T02:23:27.465Z,9.57
2023-11-18T02:25:54.353Z,7.30
2023-11-18T02:28:20.854Z,7.00
2023-11-18T02:30:47.584Z,7.85
2023-11-18T02:33:26.011Z,9.10
2023-11-18T02:36:04.089Z,10.18
2023-11-18T02:38:37.490Z,7.72
2023-11-18T02:41:10.353Z,7.13
2023-11-18T02:43:39.288Z,8.95
2023-11-18T02:46:06.801Z,9.27
2023-11-18T02:48:33.689Z,9.93
2023-11-18T02:51:00.469Z,7.15
2023-11-18T02:53:26.814Z,9.27
2023-11-18T02:55:53.377Z,6.63
2023-11-18T02:58:20.633Z,7.85
2023-11-18T03:00:47.222Z,7.03
2023-11-18T03:03:13.725Z,9.07
2023-11-18T03:05:40.196Z,9.20
2023-11-18T03:08:06.815Z,7.60
2023-11-18T03:10:33.825Z,8.02
2023-11-18T03:13:00.188Z,9.20
2023-11-18T03:15:26.585Z,8.10
2023-11-18T03:17:53.185Z,10.63
2023-11-18T03:20:21.132Z,7.53
2023-11-18T03:25:14.724Z,10.00
2023-11-18T03:27:41.421Z,7.40
2023-11-18T03:30:08.900Z,6.85
2023-11-18T03:32:39.899Z,9.50
2023-11-18T03:35:07.784Z,9.25
2023-11-18T03:37:34.170Z,9.38
2023-11-18T03:40:00.515Z,10.13
2023-11-18T03:42:26.897Z,8.63
2023-11-18T03:44:53.257Z,10.75
2023-11-18T03:47:19.688Z,8.52
2023-11-18T03:49:46.121Z,11.38
2023-11-18T03:52:12.467Z,11.13
2023-11-18T03:54:38.827Z,10.18
2023-11-18T03:57:05.442Z,9.10
2023-11-18T03:59:31.790Z,8.43
2023-11-18T04:01:58.302Z,8.55
2023-11-18T04:04:24.706Z,8.07
2023-11-18T04:06:51.122Z,8.45
2023-11-18T04:09:17.557Z,7.22
2023-11-18T04:11:43.924Z,8.98
2023-11-18T04:14:10.301Z,9.88
2023-11-18T04:16:37.089Z,9.27
2023-11-18T04:19:03.903Z,10.25
2023-11-18T04:21:30.539Z,8.50
2023-11-18T04:23:56.872Z,10.82
2023-11-18T04:26:23.329Z,11.57
2023-11-18T04:28:49.682Z,9.88
2023-11-18T04:31:16.052Z,9.32
2023-11-18T04:33:42.608Z,8.00
2023-11-18T04:36:10.991Z,8.15
2023-11-18T04:38:37.410Z,12.52
2023-11-18T04:41:04.101Z,8.48
2023-11-18T04:43:38.750Z,9.38
2023-11-18T04:46:09.372Z,15.48
2023-11-18T04:48:38.838Z,17.50
2023-11-18T04:51:07.287Z,12.43
2023-11-18T04:53:33.606Z,10.77
2023-11-18T04:56:00.102Z,8.75
2023-11-18T04:58:26.553Z,11.60
2023-11-18T05:00:53.013Z,13.15
2023-11-18T05:03:19.678Z,15.32
2023-11-18T05:05:46.111Z,11.30
2023-11-18T05:08:20.723Z,9.82
2023-11-18T05:10:48.800Z,11.30
2023-11-18T05:13:15.696Z,11.90
2023-11-18T05:15:42.196Z,12.10
2023-11-18T05:18:08.938Z,15.02
2023-11-18T05:20:35.363Z,11.85
2023-11-18T05:23:01.717Z,15.63
2023-11-18T05:25:28.216Z,12.73
2023-11-18T05:27:54.653Z,9.95
2023-11-18T05:30:21.019Z,10.82
2023-11-18T05:32:47.482Z,9.13
2023-11-18T05:35:13.847Z,10.13
2023-11-18T05:37:40.386Z,10.65
2023-11-18T05:40:07.322Z,10.77
2023-11-18T05:42:40.273Z,12.20
2023-11-18T05:45:07.606Z,12.95
2023-11-18T05:47:37.633Z,10.88
2023-11-18T05:50:04.434Z,9.38
2023-11-18T05:52:30.789Z,11.40
2023-11-18T05:54:57.129Z,10.73
2023-11-18T05:57:23.584Z,11.50
2023-11-18T05:59:49.917Z,9.93
2023-11-18T06:02:16.495Z,10.45
2023-11-18T06:04:42.887Z,12.85
2023-11-18T06:07:09.229Z,12.00
2023-11-18T06:09:35.662Z,12.18
2023-11-18T06:12:02.018Z,12.35
2023-11-18T06:14:28.336Z,12.82
2023-11-18T06:16:54.857Z,9.43
2023-11-18T06:19:22.294Z,14.27
2023-11-18T06:21:48.670Z,10.57
2023-11-18T06:24:15.152Z,11.60
2023-11-18T06:26:41.496Z,11.98
2023-11-18T06:29:07.930Z,13.93
2023-11-18T06:31:34.323Z,14.40
2023-11-18T06:34:00.698Z,11.98
2023-11-18T06:36:27.040Z,11.30
2023-11-18T06:38:54.215Z,16.02
2023-11-18T06:41:22.254Z,10.65
2023-11-18T06:43:48.650Z,12.93
2023-11-18T06:46:15.025Z,14.45
2023-11-18T06:48:41.437Z,14.52
2023-11-18T06:51:08.759Z,13.48
2023-11-18T06:53:35.563Z,13.23
2023-11-18T06:56:02.077Z,11.10
2023-11-18T06:58:28.418Z,12.70
2023-11-18T07:00:56.147Z,10.93
2023-11-18T07:03:22.623Z,11.50
2023-11-18T07:05:49.395Z,11.38
2023-11-18T07:08:15.842Z,11.98
2023-11-18T07:10:42.225Z,11.93
2023-11-18T07:13:08.719Z,12.10
2023-11-18T07:15:35.768Z,10.88
2023-11-18T07:18:02.439Z,13.57
2023-11-18T07:20:28.922Z,13.73
2023-11-18T07:22:55.278Z,12.05
2023-11-18T07:25:21.658Z,12.68
2023-11-18T07:27:48.048Z,14.05
2023-11-18T07:30:14.543Z,11.65
2023-11-18T07:32:40.944Z,12.80
2023-11-18T07:35:07.728Z,12.23
2023-11-18T07:37:34.086Z,11.93
2023-11-18T07:40:00.514Z,15.20
2023-11-18T07:42:27.102Z,14.55
2023-11-18T07:44:53.490Z,16.85
2023-11-18T07:47:19.897Z,14.82
2023-11-18T07:49:47.386Z,16.70
2023-11-18T07:52:13.713Z,15.82
2023-11-18T07:54:40.058Z,14.20
2023-11-18T07:57:06.458Z,15.27
2023-11-18T07:59:32.908Z,16.50
2023-11-18T08:01:59.457Z,16.80
2023-11-18T08:04:25.871Z,14.30
2023-11-18T08:06:52.311Z,13.20
2023-11-18T08:09:18.650Z,14.85
2023-11-18T08:11:46.299Z,14.20
2023-11-18T08:14:12.713Z,16.27
2023-11-18T08:16:39.262Z,17.30
2023-11-18T08:19:05.733Z,13.77
2023-11-18T08:21:32.128Z,12.80
2023-11-18T08:23:58.504Z,11.38
2023-11-18T08:26:24.874Z,14.68
2023-11-18T08:28:51.252Z,15.68
2023-11-18T08:31:17.674Z,15.25
2023-11-18T08:33:44.420Z,14.07
2023-11-18T08:36:11.181Z,13.30
2023-11-18T08:38:37.638Z,15.50
2023-11-18T08:41:04.345Z,16.02
2023-11-18T08:43:30.682Z,13.32
2023-11-18T08:45:58.437Z,15.63
2023-11-18T08:48:25.949Z,23.48
2023-11-18T08:50:52.319Z,13.15
2023-11-18T08:53:18.686Z,14.77
2023-11-18T08:55:45.443Z,12.95
2023-11-18T08:58:12.828Z,16.00
2023-11-18T09:00:39.292Z,17.45
2023-11-18T09:03:05.871Z,14.15
2023-11-18T09:05:33.898Z,15.52
2023-11-18T09:08:00.403Z,15.38
2023-11-18T09:10:27.811Z,18.88
2023-11-18T09:12:55.937Z,18.20
2023-11-18T09:15:22.951Z,14.43
2023-11-18T09:17:50.252Z,12.52
2023-11-18T09:20:16.866Z,14.55
2023-11-18T09:22:43.278Z,15.90
2023-11-18T09:25:10.743Z,12.88
2023-11-18T09:27:37.371Z,13.63
2023-11-18T09:30:04.072Z,14.90
2023-11-18T09:32:30.542Z,13.30
2023-11-18T09:34:56.946Z,12.32
2023-11-18T09:37:23.327Z,13.60
2023-11-18T09:39:49.826Z,21.08
2023-11-18T09:42:16.601Z,16.30
2023-11-18T09:44:43.054Z,12.20
2023-11-18T09:47:09.607Z,15.15
2023-11-18T09:49:44.614Z,12.38
2023-11-18T09:52:17.525Z,12.82
2023-11-18T09:54:55.545Z,12.05
2023-11-18T09:57:37.844Z,13.90
2023-11-18T10:00:05.638Z,12.45
2023-11-18T10:02:32.572Z,14.90
2023-11-18T10:05:01.137Z,14.52
2023-11-18T10:07:28.236Z,16.25
2023-11-18T10:09:58.431Z,15.50
2023-11-18T10:12:25.517Z,15.48
2023-11-18T10:14:52.184Z,14.07
2023-11-18T10:17:19.161Z,15.70
2023-11-18T10:19:59.412Z,14.05
2023-11-18T10:22:27.875Z,14.55
2023-11-18T10:24:58.171Z,15.25
2023-11-18T10:27:25.830Z,11.32
2023-11-18T10:32:23.338Z,15.15
2023-11-18T10:34:50.909Z,14.90
2023-11-18T10:39:49.740Z,12.35
2023-11-18T10:42:16.075Z,14.02
2023-11-18T10:44:55.918Z,24.33
2023-11-18T10:47:22.332Z,19.45
2023-11-18T10:49:52.050Z,14.77
2023-11-18T10:52:20.439Z,14.35
2023-11-18T10:54:54.249Z,14.05
2023-11-18T10:57:21.476Z,14.60
2023-11-18T11:00:01.175Z,15.10
2023-11-18T11:02:32.232Z,13.63
2023-11-18T11:04:58.671Z,12.25
2023-11-18T11:07:26.912Z,15.10
2023-11-18T11:09:53.288Z,14.32
2023-11-18T11:12:21.029Z,13.63
2023-11-18T11:14:58.548Z,13.40
2023-11-18T11:17:28.800Z,13.55
2023-11-18T11:20:08.347Z,12.52
2023-11-18T11:22:40.619Z,10.38
2023-11-18T11:25:06.897Z,11.98
2023-11-18T11:27:56.785Z,10.27
2023-11-18T11:30:24.069Z,11.68
2023-11-18T11:32:53.351Z,9.77
2023-11-18T11:35:32.713Z,11.75
2023-11-18T11:38:00.555Z,10.55
2023-11-18T11:40:28.498Z,8.77
2023-11-18T11:42:55.222Z,11.25
2023-11-18T11:45:25.639Z,9.68
2023-11-18T11:47:53.516Z,11.25
2023-11-18T11:50:27.252Z,10.38
2023-11-18T11:53:00.596Z,11.57
2023-11-18T11:55:46.183Z,11.02
2023-11-18T11:58:27.402Z,12.05
2023-11-18T12:00:55.721Z,12.30
2023-11-18T12:03:25.431Z,10.70
2023-11-18T12:05:56.143Z,11.05
2023-11-18T12:08:23.919Z,9.65
2023-11-18T12:10:55.091Z,9.30
2023-11-18T12:13:21.544Z,8.65
2023-11-18T12:15:57.147Z,9.27
2023-11-18T12:18:26.536Z,7.40
2023-11-18T12:20:53.009Z,6.25
2023-11-18T12:23:19.474Z,5.70
2023-11-18T12:25:45.916Z,6.63
2023-11-18T12:28:16.831Z,9.02
2023-11-18T12:30:45.447Z,8.07
2023-11-18T12:33:11.985Z,6.55
2023-11-18T12:36:07.616Z,8.05
2023-11-18T12:38:45.813Z,6.07
2023-11-18T12:41:36.315Z,5.15
2023-11-18T12:44:15.511Z,6.18
2023-11-18T12:46:55.309Z,6.13
2023-11-18T12:49:26.006Z,5.72
2023-11-18T12:51:56.625Z,5.65
2023-11-18T12:54:25.283Z,10.15
2023-11-18T12:56:52.652Z,14.50
2023-11-18T12:59:19.114Z,12.18
2023-11-18T13:01:48.286Z,25.75
2023-11-18T13:04:14.979Z,10.68
2023-11-18T13:06:41.592Z,9.80
2023-11-18T13:09:08.125Z,9.55
2023-11-18T13:11:34.556Z,7.90
2023-11-18T13:14:01.239Z,6.22
2023-11-18T13:16:27.728Z,5.82
2023-11-18T13:18:54.152Z,5.55
2023-11-18T13:21:21.053Z,5.47
2023-11-18T13:23:49.242Z,8.68
2023-11-18T13:26:16.734Z,5.60
2023-11-18T13:28:43.620Z,8.35
2023-11-18T13:31:11.053Z,11.98
2023-11-18T13:33:40.581Z,10.75
2023-11-18T13:36:08.194Z,11.10
2023-11-18T13:38:34.662Z,10.23
2023-11-18T13:41:01.126Z,7.00
2023-11-18T13:43:27.525Z,6.57
2023-11-18T13:45:54.087Z,5.07
2023-11-18T13:48:22.443Z,5.65
2023-11-18T13:50:48.963Z,8.77
2023-11-18T13:53:15.385Z,9.63
2023-11-18T13:55:41.941Z,8.70
2023-11-18T13:58:08.391Z,11.18
2023-11-18T14:00:34.898Z,12.93
2023-11-18T14:03:02.356Z,10.38
2023-11-18T14:07:55.737Z,4.82
2023-11-18T14:10:23.529Z,5.72
2023-11-18T14:13:03.354Z,5.90
2023-11-18T14:15:30.423Z,6.30
2023-11-18T14:17:56.865Z,5.85
2023-11-18T14:20:23.456Z,5.88
2023-11-18T14:22:52.183Z,5.30
2023-11-18T14:25:19.645Z,6.30
2023-11-18T14:27:45.996Z,6.45
2023-11-18T14:30:13.197Z,15.95
2023-11-18T14:32:39.575Z,13.13
2023-11-18T14:35:07.282Z,12.93
2023-11-18T14:37:34.006Z,8.65
2023-11-18T14:40:00.373Z,10.07
2023-11-18T14:42:26.942Z,8.68
2023-11-18T14:44:53.277Z,9.07
2023-11-18T14:47:19.622Z,6.30
2023-11-18T14:49:46.023Z,7.40
2023-11-18T14:52:12.357Z,8.18
2023-11-18T14:54:38.700Z,9.60
2023-11-18T14:57:05.378Z,10.25
2023-11-18T14:59:31.774Z,6.20
2023-11-18T15:01:58.633Z,6.93
2023-11-18T15:04:25.081Z,13.43
2023-11-18T15:06:51.501Z,10.50
2023-11-18T15:09:17.939Z,10.10
2023-11-18T15:11:44.311Z,7.50
2023-11-18T15:14:10.709Z,7.07
2023-11-18T15:16:37.191Z,8.20
2023-11-18T15:19:04.620Z,7.47
2023-11-18T15:21:31.129Z,8.63
2023-11-18T15:23:57.552Z,10.27
2023-11-18T15:26:23.930Z,10.55
2023-11-18T15:28:50.291Z,8.05
2023-11-18T15:31:16.671Z,6.95
2023-11-18T15:33:43.028Z,6.00
2023-11-18T15:36:10.611Z,7.20
2023-11-18T15:38:37.124Z,8.10
2023-11-18T15:41:03.729Z,7.32
2023-11-18T15:43:30.148Z,7.25
2023-11-18T15:45:56.469Z,7.88
2023-11-18T15:48:22.942Z,7.15
2023-11-18T15:50:49.435Z,7.50
2023-11-18T15:53:16.481Z,8.30
2023-11-18T15:55:43.285Z,9.15
2023-11-18T15:58:09.699Z,10.30
2023-11-18T16:00:36.265Z,9.93
2023-11-18T16:03:03.538Z,8.30
2023-11-18T16:05:30.530Z,11.05
2023-11-18T16:07:57.325Z,11.75
2023-11-18T16:10:26.711Z,11.32
2023-11-18T16:12:57.981Z,11.23
2023-11-18T16:15:28.817Z,9.55
2023-11-18T16:17:59.234Z,10.38
2023-11-18T16:20:28.041Z,11.57
2023-11-18T16:22:55.801Z,10.32
2023-11-18T16:27:50.812Z,9.48
2023-11-18T16:30:18.712Z,10.27
2023-11-18T16:32:48.186Z,14.30
2023-11-18T16:35:16.335Z,10.02
2023-11-18T16:37:44.143Z,9.43
2023-11-18T16:40:12.517Z,12.15
2023-11-18T16:42:39.009Z,11.57
2023-11-18T16:45:05.809Z,10.55
2023-11-18T16:47:32.409Z,11.40
2023-11-18T16:50:03.618Z,13.25
2023-11-18T16:52:31.239Z,10.75
2023-11-18T16:54:57.891Z,10.73
2023-11-18T16:57:24.330Z,10.55
2023-11-18T16:59:50.671Z,12.30
2023-11-18T17:02:17.074Z,11.27
2023-11-18T17:04:43.573Z,16.58
2023-11-18T17:07:10.118Z,13.23
2023-11-18T17:09:36.577Z,13.82
2023-11-18T17:12:03.021Z,20.58
2023-11-18T17:14:29.481Z,21.90
2023-11-18T17:16:55.986Z,18.30
2023-11-18T17:19:22.427Z,13.98
2023-11-18T17:21:48.806Z,11.35
2023-11-18T17:24:15.197Z,11.07
2023-11-18T17:26:41.594Z,11.98
2023-11-18T17:29:08.031Z,5.78
2023-11-18T17:31:35.815Z,6.72
2023-11-18T17:36:29.281Z,9.57
2023-11-18T17:38:55.609Z,8.68
2023-11-18T17:41:22.349Z,10.75
2023-11-18T17:43:49.772Z,12.23
2023-11-18T17:46:17.015Z,10.38
2023-11-18T17:48:43.736Z,15.07
2023-11-18T17:51:10.761Z,10.63
2023-11-18T17:53:37.269Z,9.68
2023-11-18T17:56:03.917Z,9.52
2023-11-18T17:58:30.311Z,11.18
2023-11-18T18:00:56.818Z,9.77
2023-11-18T18:03:23.241Z,9.45
2023-11-18T18:05:49.691Z,7.35
2023-11-18T18:08:16.180Z,8.70
2023-11-18T18:10:42.530Z,7.97
2023-11-18T18:13:08.984Z,8.75
2023-11-18T18:15:36.733Z,9.85
2023-11-18T18:20:29.631Z,8.43
2023-11-18T18:22:55.984Z,11.25
2023-11-18T18:25:22.379Z,10.43
2023-11-18T18:27:48.887Z,7.90
2023-11-18T18:30:15.362Z,8.30
2023-11-18T18:32:42.101Z,8.80
2023-11-18T18:35:09.142Z,9.45
2023-11-18T18:37:35.522Z,12.20
2023-11-18T18:40:01.967Z,8.98
2023-11-18T18:42:28.300Z,10.57
2023-11-18T18:44:54.752Z,10.00
2023-11-18T18:47:22.378Z,7.55
2023-11-18T18:49:50.033Z,9.30
2023-11-18T18:52:16.496Z,10.70
2023-11-18T18:54:43.825Z,14.48
2023-11-18T18:57:10.211Z,11.05
2023-11-18T18:59:36.705Z,8.70
2023-11-18T19:02:03.104Z,7.60
2023-11-18T19:04:29.453Z,6.05
2023-11-18T19:06:55.868Z,9.38
2023-11-18T19:09:22.217Z,8.15
2023-11-18T19:11:49.144Z,8.27
2023-11-18T19:14:15.730Z,8.23
2023-11-18T19:16:43.665Z,10.02
2023-11-18T19:19:10.190Z,6.68
2023-11-18T19:21:36.560Z,7.82
2023-11-18T19:24:02.898Z,9.93
2023-11-18T19:26:29.342Z,8.70
2023-11-18T19:28:55.770Z,9.60
2023-11-18T19:31:22.126Z,10.13
2023-11-18T19:33:48.536Z,11.27
2023-11-18T19:36:16.010Z,15.82
2023-11-18T19:38:43.537Z,24.73
2023-11-18T19:41:09.957Z,15.55
2023-11-18T19:43:36.415Z,16.10
2023-11-18T19:46:02.953Z,13.40
2023-11-18T19:48:29.353Z,8.05
2023-11-18T19:50:55.952Z,10.77
2023-11-18T19:53:22.379Z,7.32
2023-11-18T19:55:48.946Z,7.75
2023-11-18T19:58:15.439Z,6.80
2023-11-18T20:00:41.869Z,7.97
2023-11-18T20:03:08.419Z,7.50
2023-11-18T20:05:35.679Z,6.10
2023-11-18T20:08:02.515Z,6.40
2023-11-18T20:10:28.997Z,4.65
2023-11-18T20:12:55.345Z,6.50
2023-11-18T20:15:22.503Z,6.63
2023-11-18T20:17:49.336Z,4.30
2023-11-18T20:20:15.812Z,4.43
2023-11-18T20:22:42.378Z,7.40
2023-11-18T20:25:08.992Z,5.00
2023-11-18T20:27:35.708Z,4.97
2023-11-18T20:30:05.328Z,11.40
2023-11-18T20:32:37.264Z,4.03
2023-11-18T20:35:04.133Z,3.90
2023-11-18T20:37:30.675Z,4.35
2023-11-18T20:39:57.008Z,6.38
2023-11-18T20:42:24.177Z,4.30
2023-11-18T20:44:50.806Z,3.55
2023-11-18T20:47:19.748Z,2.78
2023-11-18T20:49:46.119Z,4.60
2023-11-18T20:52:12.553Z,6.38
2023-11-18T20:54:38.957Z,8.73
2023-11-18T20:57:05.495Z,4.38
2023-11-18T20:59:32.292Z,4.57
2023-11-18T21:01:59.305Z,3.20
2023-11-18T21:04:25.857Z,3.38
2023-11-18T21:06:53.247Z,3.30
2023-11-18T21:09:19.630Z,3.78
2023-11-18T21:11:46.118Z,3.20
2023-11-18T21:14:12.485Z,3.15
2023-11-18T21:16:39.063Z,2.60
2023-11-18T21:19:05.650Z,4.38
2023-11-18T21:21:32.060Z,4.00
2023-11-18T21:23:58.507Z,3.92
2023-11-18T21:26:25.055Z,6.05
2023-11-18T21:28:52.137Z,5.55
2023-11-18T21:31:18.500Z,5.00
2023-11-18T21:33:44.999Z,6.90
2023-11-18T21:36:11.365Z,5.72
2023-11-18T21:38:37.734Z,4.03
2023-11-18T21:41:04.285Z,5.40
2023-11-18T21:43:30.651Z,4.03
2023-11-18T21:45:57.903Z,2.70
2023-11-18T21:48:24.297Z,3.47
2023-11-18T21:50:50.678Z,2.47
2023-11-18T21:53:17.468Z,4.30
2023-11-18T21:55:43.815Z,2.60
2023-11-18T21:58:10.461Z,3.85
2023-11-18T22:00:45.092Z,3.53
2023-11-18T22:03:12.254Z,5.03
2023-11-18T22:08:05.483Z,4.40
2023-11-18T22:10:31.840Z,4.03
2023-11-18T22:12:58.210Z,2.88
2023-11-18T22:15:24.528Z,3.75
2023-11-18T22:17:50.993Z,4.10
2023-11-18T22:20:18.237Z,5.28
2023-11-18T22:22:45.361Z,5.53
2023-11-18T22:25:11.735Z,5.22
2023-11-18T22:27:38.203Z,3.25
2023-11-18T22:30:05.080Z,4.47
2023-11-18T22:32:31.540Z,5.13
2023-11-18T22:34:59.149Z,5.10
2023-11-18T22:37:25.617Z,4.80
2023-11-18T22:39:52.211Z,3.85
2023-11-18T22:42:18.961Z,3.83
2023-11-18T22:44:45.364Z,6.63
2023-11-18T22:47:20.326Z,4.78
2023-11-18T22:49:46.681Z,4.85
2023-11-18T22:52:13.342Z,6.95
2023-11-18T22:54:39.675Z,9.90
2023-11-18T22:57:06.811Z,4.47
2023-11-18T22:59:33.258Z,4.85
2023-11-18T23:02:00.516Z,4.70
2023-11-18T23:04:26.865Z,4.90
2023-11-18T23:06:53.194Z,4.10
2023-11-18T23:09:19.548Z,3.20
2023-11-18T23:11:45.884Z,4.25
2023-11-18T23:14:12.278Z,3.55
2023-11-18T23:16:38.679Z,4.35
2023-11-18T23:19:05.137Z,4.53
2023-11-18T23:21:31.563Z,4.53
2023-11-18T23:23:58.002Z,3.65
2023-11-18T23:26:24.339Z,4.35
2023-11-18T23:28:50.674Z,3.92
2023-11-18T23:31:17.159Z,4.68
2023-11-18T23:33:43.853Z,3.85
2023-11-18T23:36:10.221Z,4.20
2023-11-18T23:38:37.542Z,3.72
2023-11-18T23:41:04.791Z,3.28
2023-11-18T23:43:31.199Z,4.22
2023-11-18T23:45:57.708Z,4.22
2023-11-18T23:48:24.061Z,4.05
2023-11-18T23:50:50.470Z,4.60
2023-11-18T23:53:17.580Z,4.25
2023-11-18T23:55:45.027Z,4.63
2023-11-18T23:58:11.363Z,4.50
